sensor_id;sensor_type;location;lat;lon;timestamp;P1;durP1;ratioP1;P2;durP2;ratioP2
6251;SDS011;3159;52.414;9.784;2023-07-30T00:02:14;1.30;;;1.20;;
6251;SDS011;3159;52.414;9.784;2023-07-30T00:04:41;1.40;;;1.30;;
6251;SDS011;3159;52.414;9.784;2023-07-30T00:07:10;2.20;;;1.30;;
6251;SDS011;3159;52.414;9.784;2023-07-30T00:09:37;2.17;;;1.00;;
6251;SDS011;3159;52.414;9.784;2023-07-30T00:12:04;1.57;;;1.30;;
6251;SDS011;3159;52.414;9.784;2023-07-30T00:14:32;2.60;;;1.33;;
6251;SDS011;3159;52.414;9.784;2023-07-30T00:16:59;1.47;;;1.37;;
6251;SDS011;3159;52.414;9.784;2023-07-30T00:19:26;1.70;;;1.60;;
6251;SDS011;3159;52.414;9.784;2023-07-30T00:21:53;2.47;;;1.20;;
6251;SDS011;3159;52.414;9.784;2023-07-30T00:24:21;2.20;;;1.40;;
6251;SDS011;3159;52.414;9.784;2023-07-30T00:26:48;3.07;;;1.27;;
6251;SDS011;3159;52.414;9.784;2023-07-30T00:29:15;3.43;;;1.50;;
6251;SDS011;3159;52.414;9.784;2023-07-30T00:31:42;2.60;;;1.60;;
6251;SDS011;3159;52.414;9.784;2023-07-30T00:34:09;1.73;;;1.30;;
6251;SDS011;3159;52.414;9.784;2023-07-30T00:36:34;3.70;;;1.77;;
6251;SDS011;3159;52.414;9.784;2023-07-30T00:39:01;1.90;;;1.60;;
6251;SDS011;3159;52.414;9.784;2023-07-30T00:41:30;3.17;;;1.40;;
6251;SDS011;3159;52.414;9.784;2023-07-30T00:43:57;1.67;;;1.57;;
6251;SDS011;3159;52.414;9.784;2023-07-30T00:46:24;2.13;;;1.80;;
6251;SDS011;3159;52.414;9.784;2023-07-30T00:48:51;1.60;;;1.50;;
6251;SDS011;3159;52.414;9.784;2023-07-30T00:51:18;5.63;;;1.17;;
6251;SDS011;3159;52.414;9.784;2023-07-30T00:53:46;3.53;;;1.70;;
6251;SDS011;3159;52.414;9.784;2023-07-30T00:56:13;1.77;;;1.67;;
6251;SDS011;3159;52.414;9.784;2023-07-30T00:58:41;3.40;;;1.70;;
6251;SDS011;3159;52.414;9.784;2023-07-30T01:01:12;2.17;;;1.70;;
6251;SDS011;3159;52.414;9.784;2023-07-30T01:03:39;1.70;;;1.60;;
6251;SDS011;3159;52.414;9.784;2023-07-30T01:06:06;2.90;;;1.50;;
6251;SDS011;3159;52.414;9.784;2023-07-30T01:08:33;2.50;;;2.20;;
6251;SDS011;3159;52.414;9.784;2023-07-30T01:11:01;1.90;;;1.80;;
6251;SDS011;3159;52.414;9.784;2023-07-30T01:13:29;2.70;;;2.00;;
6251;SDS011;3159;52.414;9.784;2023-07-30T01:15:57;2.43;;;1.83;;
6251;SDS011;3159;52.414;9.784;2023-07-30T01:18:24;1.87;;;1.77;;
6251;SDS011;3159;52.414;9.784;2023-07-30T01:20:54;2.60;;;2.40;;
6251;SDS011;3159;52.414;9.784;2023-07-30T01:23:24;4.27;;;2.10;;
6251;SDS011;3159;52.414;9.784;2023-07-30T01:25:52;2.77;;;1.83;;
6251;SDS011;3159;52.414;9.784;2023-07-30T01:28:25;6.10;;;2.80;;
6251;SDS011;3159;52.414;9.784;2023-07-30T01:30:55;2.10;;;1.97;;
6251;SDS011;3159;52.414;9.784;2023-07-30T01:33:26;9.53;;;6.70;;
6251;SDS011;3159;52.414;9.784;2023-07-30T01:35:55;7.07;;;4.63;;
6251;SDS011;3159;52.414;9.784;2023-07-30T01:38:23;5.93;;;3.23;;
6251;SDS011;3159;52.414;9.784;2023-07-30T01:40:51;21.87;;;13.07;;
6251;SDS011;3159;52.414;9.784;2023-07-30T01:43:18;58.77;;;32.47;;
6251;SDS011;3159;52.414;9.784;2023-07-30T01:45:45;20.50;;;10.57;;
6251;SDS011;3159;52.414;9.784;2023-07-30T01:48:12;13.13;;;7.63;;
6251;SDS011;3159;52.414;9.784;2023-07-30T01:50:39;7.87;;;4.00;;
6251;SDS011;3159;52.414;9.784;2023-07-30T01:53:07;3.67;;;2.63;;
6251;SDS011;3159;52.414;9.784;2023-07-30T01:55:34;2.43;;;2.17;;
6251;SDS011;3159;52.414;9.784;2023-07-30T01:58:01;2.93;;;2.30;;
6251;SDS011;3159;52.414;9.784;2023-07-30T02:00:28;2.90;;;2.50;;
6251;SDS011;3159;52.414;9.784;2023-07-30T02:02:55;2.70;;;2.43;;
6251;SDS011;3159;52.414;9.784;2023-07-30T02:05:21;4.20;;;3.00;;
6251;SDS011;3159;52.414;9.784;2023-07-30T02:07:48;3.43;;;2.63;;
6251;SDS011;3159;52.414;9.784;2023-07-30T02:10:17;4.20;;;2.80;;
6251;SDS011;3159;52.414;9.784;2023-07-30T02:12:43;3.87;;;2.60;;
6251;SDS011;3159;52.414;9.784;2023-07-30T02:15:10;4.10;;;2.50;;
6251;SDS011;3159;52.414;9.784;2023-07-30T02:17:37;3.03;;;2.73;;
6251;SDS011;3159;52.414;9.784;2023-07-30T02:20:04;3.30;;;2.60;;
6251;SDS011;3159;52.414;9.784;2023-07-30T02:22:32;4.07;;;2.50;;
6251;SDS011;3159;52.414;9.784;2023-07-30T02:24:59;2.43;;;2.23;;
6251;SDS011;3159;52.414;9.784;2023-07-30T02:27:27;3.30;;;2.33;;
6251;SDS011;3159;52.414;9.784;2023-07-30T02:29:54;3.03;;;2.73;;
6251;SDS011;3159;52.414;9.784;2023-07-30T02:32:21;3.97;;;2.43;;
6251;SDS011;3159;52.414;9.784;2023-07-30T02:34:48;6.37;;;2.90;;
6251;SDS011;3159;52.414;9.784;2023-07-30T02:37:15;7.80;;;3.10;;
6251;SDS011;3159;52.414;9.784;2023-07-30T02:39:42;4.20;;;3.10;;
6251;SDS011;3159;52.414;9.784;2023-07-30T02:42:08;3.33;;;2.77;;
6251;SDS011;3159;52.414;9.784;2023-07-30T02:44:37;3.17;;;2.43;;
6251;SDS011;3159;52.414;9.784;2023-07-30T02:47:04;3.87;;;2.50;;
6251;SDS011;3159;52.414;9.784;2023-07-30T02:49:31;3.27;;;2.47;;
6251;SDS011;3159;52.414;9.784;2023-07-30T02:51:58;3.47;;;2.53;;
6251;SDS011;3159;52.414;9.784;2023-07-30T02:54:25;4.00;;;2.60;;
6251;SDS011;3159;52.414;9.784;2023-07-30T02:56:52;4.63;;;2.60;;
6251;SDS011;3159;52.414;9.784;2023-07-30T02:59:18;4.73;;;2.10;;
6251;SDS011;3159;52.414;9.784;2023-07-30T03:01:47;5.07;;;2.93;;
6251;SDS011;3159;52.414;9.784;2023-07-30T03:04:14;2.90;;;2.47;;
6251;SDS011;3159;52.414;9.784;2023-07-30T03:06:40;7.80;;;2.37;;
6251;SDS011;3159;52.414;9.784;2023-07-30T03:09:07;2.30;;;1.90;;
6251;SDS011;3159;52.414;9.784;2023-07-30T03:11:34;4.17;;;2.17;;
6251;SDS011;3159;52.414;9.784;2023-07-30T03:14:01;2.87;;;1.93;;
6251;SDS011;3159;52.414;9.784;2023-07-30T03:16:28;5.50;;;2.50;;
6251;SDS011;3159;52.414;9.784;2023-07-30T03:18:56;3.53;;;2.00;;
6251;SDS011;3159;52.414;9.784;2023-07-30T03:21:23;2.97;;;1.83;;
6251;SDS011;3159;52.414;9.784;2023-07-30T03:23:49;4.97;;;2.30;;
6251;SDS011;3159;52.414;9.784;2023-07-30T03:26:16;2.10;;;1.77;;
6251;SDS011;3159;52.414;9.784;2023-07-30T03:28:43;2.60;;;1.90;;
6251;SDS011;3159;52.414;9.784;2023-07-30T03:31:13;4.27;;;2.03;;
6251;SDS011;3159;52.414;9.784;2023-07-30T03:33:40;6.10;;;1.90;;
6251;SDS011;3159;52.414;9.784;2023-07-30T03:36:10;3.87;;;2.40;;
6251;SDS011;3159;52.414;9.784;2023-07-30T03:38:37;3.57;;;2.20;;
6251;SDS011;3159;52.414;9.784;2023-07-30T03:41:04;3.93;;;1.97;;
6251;SDS011;3159;52.414;9.784;2023-07-30T03:43:31;3.20;;;1.87;;
6251;SDS011;3159;52.414;9.784;2023-07-30T03:45:58;4.53;;;2.00;;
6251;SDS011;3159;52.414;9.784;2023-07-30T03:48:25;2.40;;;1.73;;
6251;SDS011;3159;52.414;9.784;2023-07-30T03:50:52;5.50;;;1.97;;
6251;SDS011;3159;52.414;9.784;2023-07-30T03:53:20;4.07;;;2.13;;
6251;SDS011;3159;52.414;9.784;2023-07-30T03:55:47;7.57;;;2.37;;
6251;SDS011;3159;52.414;9.784;2023-07-30T03:58:14;6.10;;;2.43;;
6251;SDS011;3159;52.414;9.784;2023-07-30T04:00:41;8.67;;;2.37;;
6251;SDS011;3159;52.414;9.784;2023-07-30T04:03:08;6.17;;;1.77;;
6251;SDS011;3159;52.414;9.784;2023-07-30T04:05:36;6.60;;;2.43;;
6251;SDS011;3159;52.414;9.784;2023-07-30T04:08:02;5.50;;;2.53;;
6251;SDS011;3159;52.414;9.784;2023-07-30T04:10:31;4.83;;;2.20;;
6251;SDS011;3159;52.414;9.784;2023-07-30T04:12:58;4.33;;;1.60;;
6251;SDS011;3159;52.414;9.784;2023-07-30T04:15:25;3.83;;;2.40;;
6251;SDS011;3159;52.414;9.784;2023-07-30T04:17:52;4.80;;;1.97;;
6251;SDS011;3159;52.414;9.784;2023-07-30T04:20:19;10.80;;;2.10;;
6251;SDS011;3159;52.414;9.784;2023-07-30T04:22:46;5.30;;;1.97;;
6251;SDS011;3159;52.414;9.784;2023-07-30T04:25:13;4.07;;;2.53;;
6251;SDS011;3159;52.414;9.784;2023-07-30T04:27:41;7.17;;;2.13;;
6251;SDS011;3159;52.414;9.784;2023-07-30T04:30:08;7.03;;;2.63;;
6251;SDS011;3159;52.414;9.784;2023-07-30T04:32:35;5.77;;;2.13;;
6251;SDS011;3159;52.414;9.784;2023-07-30T04:35:02;4.73;;;2.30;;
6251;SDS011;3159;52.414;9.784;2023-07-30T04:37:29;2.97;;;1.90;;
6251;SDS011;3159;52.414;9.784;2023-07-30T04:39:56;7.10;;;2.60;;
6251;SDS011;3159;52.414;9.784;2023-07-30T04:42:23;6.27;;;2.57;;
6251;SDS011;3159;52.414;9.784;2023-07-30T04:44:51;3.70;;;2.47;;
6251;SDS011;3159;52.414;9.784;2023-07-30T04:47:18;5.27;;;2.63;;
6251;SDS011;3159;52.414;9.784;2023-07-30T04:49:45;4.03;;;2.30;;
6251;SDS011;3159;52.414;9.784;2023-07-30T04:52:12;4.23;;;2.40;;
6251;SDS011;3159;52.414;9.784;2023-07-30T04:54:39;4.73;;;2.70;;
6251;SDS011;3159;52.414;9.784;2023-07-30T04:57:06;5.47;;;2.60;;
6251;SDS011;3159;52.414;9.784;2023-07-30T04:59:33;7.23;;;2.60;;
6251;SDS011;3159;52.414;9.784;2023-07-30T05:02:01;5.23;;;2.40;;
6251;SDS011;3159;52.414;9.784;2023-07-30T05:04:28;5.50;;;2.37;;
6251;SDS011;3159;52.414;9.784;2023-07-30T05:06:55;7.87;;;2.67;;
6251;SDS011;3159;52.414;9.784;2023-07-30T05:09:21;6.17;;;2.77;;
6251;SDS011;3159;52.414;9.784;2023-07-30T05:11:48;7.63;;;3.23;;
6251;SDS011;3159;52.414;9.784;2023-07-30T05:14:15;9.57;;;2.83;;
6251;SDS011;3159;52.414;9.784;2023-07-30T05:16:42;5.43;;;2.90;;
6251;SDS011;3159;52.414;9.784;2023-07-30T05:19:10;6.37;;;2.93;;
6251;SDS011;3159;52.414;9.784;2023-07-30T05:21:37;5.93;;;3.20;;
6251;SDS011;3159;52.414;9.784;2023-07-30T05:24:04;8.50;;;3.50;;
6251;SDS011;3159;52.414;9.784;2023-07-30T05:26:31;11.73;;;3.57;;
6251;SDS011;3159;52.414;9.784;2023-07-30T05:28:58;6.13;;;2.90;;
6251;SDS011;3159;52.414;9.784;2023-07-30T05:31:25;6.67;;;3.27;;
6251;SDS011;3159;52.414;9.784;2023-07-30T05:33:51;7.07;;;3.30;;
6251;SDS011;3159;52.414;9.784;2023-07-30T05:36:20;6.60;;;3.23;;
6251;SDS011;3159;52.414;9.784;2023-07-30T05:38:47;6.10;;;2.97;;
6251;SDS011;3159;52.414;9.784;2023-07-30T05:41:14;7.20;;;3.37;;
6251;SDS011;3159;52.414;9.784;2023-07-30T05:43:41;6.13;;;3.30;;
6251;SDS011;3159;52.414;9.784;2023-07-30T05:46:07;8.83;;;3.13;;
6251;SDS011;3159;52.414;9.784;2023-07-30T05:48:34;5.40;;;2.87;;
6251;SDS011;3159;52.414;9.784;2023-07-30T05:51:01;7.07;;;3.27;;
6251;SDS011;3159;52.414;9.784;2023-07-30T05:53:30;8.03;;;3.23;;
6251;SDS011;3159;52.414;9.784;2023-07-30T05:55:57;6.03;;;3.33;;
6251;SDS011;3159;52.414;9.784;2023-07-30T05:58:24;5.50;;;3.00;;
6251;SDS011;3159;52.414;9.784;2023-07-30T06:00:51;4.77;;;3.10;;
6251;SDS011;3159;52.414;9.784;2023-07-30T06:03:18;8.07;;;3.27;;
6251;SDS011;3159;52.414;9.784;2023-07-30T06:05:45;5.97;;;3.00;;
6251;SDS011;3159;52.414;9.784;2023-07-30T06:08:11;5.67;;;3.20;;
6251;SDS011;3159;52.414;9.784;2023-07-30T06:10:40;6.47;;;3.13;;
6251;SDS011;3159;52.414;9.784;2023-07-30T06:13:06;4.70;;;3.03;;
6251;SDS011;3159;52.414;9.784;2023-07-30T06:15:33;5.97;;;2.87;;
6251;SDS011;3159;52.414;9.784;2023-07-30T06:18:00;5.30;;;2.73;;
6251;SDS011;3159;52.414;9.784;2023-07-30T06:20:28;8.90;;;3.27;;
6251;SDS011;3159;52.414;9.784;2023-07-30T06:22:55;6.73;;;2.90;;
6251;SDS011;3159;52.414;9.784;2023-07-30T06:25:22;8.87;;;3.20;;
6251;SDS011;3159;52.414;9.784;2023-07-30T06:27:50;5.90;;;2.93;;
6251;SDS011;3159;52.414;9.784;2023-07-30T06:30:17;5.30;;;2.80;;
6251;SDS011;3159;52.414;9.784;2023-07-30T06:32:44;5.37;;;2.80;;
6251;SDS011;3159;52.414;9.784;2023-07-30T06:35:11;7.50;;;2.63;;
6251;SDS011;3159;52.414;9.784;2023-07-30T06:37:38;7.27;;;2.53;;
6251;SDS011;3159;52.414;9.784;2023-07-30T06:40:05;7.07;;;2.60;;
6251;SDS011;3159;52.414;9.784;2023-07-30T06:42:33;5.80;;;2.07;;
6251;SDS011;3159;52.414;9.784;2023-07-30T06:45:01;5.47;;;2.60;;
6251;SDS011;3159;52.414;9.784;2023-07-30T06:47:28;5.10;;;2.80;;
6251;SDS011;3159;52.414;9.784;2023-07-30T06:49:55;7.07;;;2.87;;
6251;SDS011;3159;52.414;9.784;2023-07-30T06:52:22;6.27;;;2.20;;
6251;SDS011;3159;52.414;9.784;2023-07-30T06:54:49;11.37;;;2.40;;
6251;SDS011;3159;52.414;9.784;2023-07-30T06:57:16;10.13;;;2.27;;
6251;SDS011;3159;52.414;9.784;2023-07-30T06:59:43;5.43;;;2.60;;
6251;SDS011;3159;52.414;9.784;2023-07-30T07:02:11;6.27;;;2.43;;
6251;SDS011;3159;52.414;9.784;2023-07-30T07:04:38;4.03;;;2.17;;
6251;SDS011;3159;52.414;9.784;2023-07-30T07:07:05;10.13;;;2.37;;
6251;SDS011;3159;52.414;9.784;2023-07-30T07:09:32;6.00;;;2.30;;
6251;SDS011;3159;52.414;9.784;2023-07-30T07:11:59;3.70;;;1.97;;
6251;SDS011;3159;52.414;9.784;2023-07-30T07:14:26;3.83;;;1.93;;
6251;SDS011;3159;52.414;9.784;2023-07-30T07:16:53;6.90;;;2.20;;
6251;SDS011;3159;52.414;9.784;2023-07-30T07:19:22;4.47;;;1.83;;
6251;SDS011;3159;52.414;9.784;2023-07-30T07:21:49;4.60;;;1.70;;
6251;SDS011;3159;52.414;9.784;2023-07-30T07:24:16;2.90;;;1.77;;
6251;SDS011;3159;52.414;9.784;2023-07-30T07:26:43;5.13;;;1.70;;
6251;SDS011;3159;52.414;9.784;2023-07-30T07:29:10;5.43;;;2.10;;
6251;SDS011;3159;52.414;9.784;2023-07-30T07:31:37;3.10;;;1.83;;
6251;SDS011;3159;52.414;9.784;2023-07-30T07:34:04;5.40;;;2.30;;
6251;SDS011;3159;52.414;9.784;2023-07-30T07:36:32;2.80;;;1.63;;
6251;SDS011;3159;52.414;9.784;2023-07-30T07:39:00;5.67;;;2.00;;
6251;SDS011;3159;52.414;9.784;2023-07-30T07:41:27;3.20;;;1.77;;
6251;SDS011;3159;52.414;9.784;2023-07-30T07:43:54;3.40;;;1.70;;
6251;SDS011;3159;52.414;9.784;2023-07-30T07:46:21;5.20;;;1.90;;
6251;SDS011;3159;52.414;9.784;2023-07-30T07:48:48;5.03;;;1.90;;
6251;SDS011;3159;52.414;9.784;2023-07-30T07:51:15;3.47;;;1.57;;
6251;SDS011;3159;52.414;9.784;2023-07-30T07:53:43;4.23;;;2.27;;
6251;SDS011;3159;52.414;9.784;2023-07-30T07:56:10;3.57;;;1.77;;
6251;SDS011;3159;52.414;9.784;2023-07-30T07:58:37;4.57;;;1.70;;
6251;SDS011;3159;52.414;9.784;2023-07-30T08:01:03;5.83;;;2.20;;
6251;SDS011;3159;52.414;9.784;2023-07-30T08:03:30;3.20;;;2.10;;
6251;SDS011;3159;52.414;9.784;2023-07-30T08:05:58;5.57;;;1.87;;
6251;SDS011;3159;52.414;9.784;2023-07-30T08:08:25;4.47;;;2.17;;
6251;SDS011;3159;52.414;9.784;2023-07-30T08:10:54;4.33;;;1.80;;
6251;SDS011;3159;52.414;9.784;2023-07-30T08:13:21;7.27;;;2.03;;
6251;SDS011;3159;52.414;9.784;2023-07-30T08:15:48;4.73;;;2.30;;
6251;SDS011;3159;52.414;9.784;2023-07-30T08:18:14;6.37;;;2.43;;
6251;SDS011;3159;52.414;9.784;2023-07-30T08:20:41;4.07;;;1.67;;
6251;SDS011;3159;52.414;9.784;2023-07-30T08:23:09;6.77;;;2.10;;
6251;SDS011;3159;52.414;9.784;2023-07-30T08:25:36;6.13;;;2.27;;
6251;SDS011;3159;52.414;9.784;2023-07-30T08:28:04;6.27;;;2.20;;
6251;SDS011;3159;52.414;9.784;2023-07-30T08:30:31;9.57;;;2.50;;
6251;SDS011;3159;52.414;9.784;2023-07-30T08:32:58;6.27;;;2.13;;
6251;SDS011;3159;52.414;9.784;2023-07-30T08:35:25;4.03;;;2.30;;
6251;SDS011;3159;52.414;9.784;2023-07-30T08:37:53;4.10;;;2.07;;
6251;SDS011;3159;52.414;9.784;2023-07-30T08:40:20;4.83;;;2.33;;
6251;SDS011;3159;52.414;9.784;2023-07-30T08:42:48;4.20;;;2.27;;
6251;SDS011;3159;52.414;9.784;2023-07-30T08:45:17;8.90;;;2.53;;
6251;SDS011;3159;52.414;9.784;2023-07-30T08:47:44;6.83;;;2.60;;
6251;SDS011;3159;52.414;9.784;2023-07-30T08:50:14;6.00;;;2.90;;
6251;SDS011;3159;52.414;9.784;2023-07-30T08:52:41;6.40;;;2.80;;
6251;SDS011;3159;52.414;9.784;2023-07-30T08:55:08;6.43;;;2.63;;
6251;SDS011;3159;52.414;9.784;2023-07-30T08:57:37;7.57;;;2.93;;
6251;SDS011;3159;52.414;9.784;2023-07-30T09:00:08;5.70;;;2.70;;
6251;SDS011;3159;52.414;9.784;2023-07-30T09:02:39;7.10;;;2.77;;
6251;SDS011;3159;52.414;9.784;2023-07-30T09:05:10;5.67;;;2.97;;
6251;SDS011;3159;52.414;9.784;2023-07-30T09:07:37;7.43;;;2.90;;
6251;SDS011;3159;52.414;9.784;2023-07-30T09:10:04;4.57;;;3.10;;
6251;SDS011;3159;52.414;9.784;2023-07-30T09:12:32;7.17;;;2.80;;
6251;SDS011;3159;52.414;9.784;2023-07-30T09:15:01;6.20;;;3.20;;
6251;SDS011;3159;52.414;9.784;2023-07-30T09:17:29;9.17;;;3.10;;
6251;SDS011;3159;52.414;9.784;2023-07-30T09:19:59;8.03;;;3.33;;
6251;SDS011;3159;52.414;9.784;2023-07-30T09:22:28;7.20;;;3.13;;
6251;SDS011;3159;52.414;9.784;2023-07-30T09:24:58;5.57;;;3.50;;
6251;SDS011;3159;52.414;9.784;2023-07-30T09:27:28;5.20;;;3.40;;
6251;SDS011;3159;52.414;9.784;2023-07-30T09:29:56;7.40;;;3.47;;
6251;SDS011;3159;52.414;9.784;2023-07-30T09:32:25;10.63;;;3.90;;
6251;SDS011;3159;52.414;9.784;2023-07-30T09:34:52;5.77;;;4.43;;
6251;SDS011;3159;52.414;9.784;2023-07-30T09:37:21;5.50;;;3.90;;
6251;SDS011;3159;52.414;9.784;2023-07-30T09:39:48;5.43;;;4.43;;
6251;SDS011;3159;52.414;9.784;2023-07-30T09:42:15;9.70;;;4.17;;
6251;SDS011;3159;52.414;9.784;2023-07-30T09:44:42;12.03;;;4.53;;
6251;SDS011;3159;52.414;9.784;2023-07-30T09:47:13;5.07;;;4.57;;
6251;SDS011;3159;52.414;9.784;2023-07-30T09:49:39;7.90;;;5.63;;
6251;SDS011;3159;52.414;9.784;2023-07-30T09:52:07;5.97;;;4.73;;
6251;SDS011;3159;52.414;9.784;2023-07-30T09:54:35;10.73;;;5.33;;
6251;SDS011;3159;52.414;9.784;2023-07-30T09:57:04;12.00;;;5.50;;
6251;SDS011;3159;52.414;9.784;2023-07-30T09:59:32;6.40;;;4.97;;
6251;SDS011;3159;52.414;9.784;2023-07-30T10:01:59;6.57;;;4.70;;
6251;SDS011;3159;52.414;9.784;2023-07-30T10:04:27;5.17;;;4.50;;
6251;SDS011;3159;52.414;9.784;2023-07-30T10:06:56;10.17;;;4.80;;
6251;SDS011;3159;52.414;9.784;2023-07-30T10:09:28;5.93;;;4.40;;
6251;SDS011;3159;52.414;9.784;2023-07-30T10:11:59;7.67;;;4.47;;
6251;SDS011;3159;52.414;9.784;2023-07-30T10:14:28;7.50;;;4.07;;
6251;SDS011;3159;52.414;9.784;2023-07-30T10:16:56;9.57;;;4.60;;
6251;SDS011;3159;52.414;9.784;2023-07-30T10:19:26;8.43;;;4.90;;
6251;SDS011;3159;52.414;9.784;2023-07-30T10:21:53;8.40;;;4.67;;
6251;SDS011;3159;52.414;9.784;2023-07-30T10:24:25;9.13;;;5.50;;
6251;SDS011;3159;52.414;9.784;2023-07-30T10:26:53;9.27;;;5.93;;
6251;SDS011;3159;52.414;9.784;2023-07-30T10:29:24;9.17;;;6.20;;
6251;SDS011;3159;52.414;9.784;2023-07-30T10:31:52;9.43;;;6.20;;
6251;SDS011;3159;52.414;9.784;2023-07-30T10:34:22;9.87;;;6.37;;
6251;SDS011;3159;52.414;9.784;2023-07-30T10:36:52;9.83;;;6.57;;
6251;SDS011;3159;52.414;9.784;2023-07-30T10:39:25;11.33;;;6.87;;
6251;SDS011;3159;52.414;9.784;2023-07-30T10:41:54;9.57;;;6.30;;
6251;SDS011;3159;52.414;9.784;2023-07-30T10:44:22;11.17;;;7.00;;
6251;SDS011;3159;52.414;9.784;2023-07-30T10:46:52;10.20;;;7.07;;
6251;SDS011;3159;52.414;9.784;2023-07-30T10:49:19;12.10;;;7.73;;
6251;SDS011;3159;52.414;9.784;2023-07-30T10:51:46;11.30;;;8.00;;
6251;SDS011;3159;52.414;9.784;2023-07-30T10:54:13;9.93;;;7.30;;
6251;SDS011;3159;52.414;9.784;2023-07-30T10:56:41;11.93;;;7.80;;
6251;SDS011;3159;52.414;9.784;2023-07-30T10:59:09;13.70;;;8.37;;
6251;SDS011;3159;52.414;9.784;2023-07-30T11:01:39;13.67;;;8.27;;
6251;SDS011;3159;52.414;9.784;2023-07-30T11:04:08;11.70;;;8.83;;
6251;SDS011;3159;52.414;9.784;2023-07-30T11:06:36;12.50;;;9.10;;
6251;SDS011;3159;52.414;9.784;2023-07-30T11:09:03;14.80;;;9.50;;
6251;SDS011;3159;52.414;9.784;2023-07-30T11:11:31;15.03;;;9.30;;
6251;SDS011;3159;52.414;9.784;2023-07-30T11:13:58;13.77;;;9.73;;
6251;SDS011;3159;52.414;9.784;2023-07-30T11:16:25;15.03;;;9.87;;
6251;SDS011;3159;52.414;9.784;2023-07-30T11:18:53;13.27;;;9.23;;
6251;SDS011;3159;52.414;9.784;2023-07-30T11:21:20;17.10;;;9.40;;
6251;SDS011;3159;52.414;9.784;2023-07-30T11:23:47;11.30;;;9.33;;
6251;SDS011;3159;52.414;9.784;2023-07-30T11:26:14;11.63;;;9.10;;
6251;SDS011;3159;52.414;9.784;2023-07-30T11:28:43;12.37;;;9.73;;
6251;SDS011;3159;52.414;9.784;2023-07-30T11:31:11;12.43;;;9.70;;
6251;SDS011;3159;52.414;9.784;2023-07-30T11:33:41;11.67;;;9.30;;
6251;SDS011;3159;52.414;9.784;2023-07-30T11:36:11;13.73;;;9.50;;
6251;SDS011;3159;52.414;9.784;2023-07-30T11:38:40;13.37;;;10.43;;
6251;SDS011;3159;52.414;9.784;2023-07-30T11:41:07;13.23;;;8.47;;
6251;SDS011;3159;52.414;9.784;2023-07-30T11:43:37;13.87;;;9.23;;
6251;SDS011;3159;52.414;9.784;2023-07-30T11:46:08;11.73;;;9.60;;
6251;SDS011;3159;52.414;9.784;2023-07-30T11:48:47;13.30;;;9.70;;
6251;SDS011;3159;52.414;9.784;2023-07-30T11:51:24;11.27;;;9.97;;
6251;SDS011;3159;52.414;9.784;2023-07-30T11:53:53;12.33;;;10.63;;
6251;SDS011;3159;52.414;9.784;2023-07-30T11:56:22;12.17;;;9.57;;
6251;SDS011;3159;52.414;9.784;2023-07-30T11:58:53;13.37;;;9.80;;
6251;SDS011;3159;52.414;9.784;2023-07-30T12:01:22;14.63;;;9.97;;
6251;SDS011;3159;52.414;9.784;2023-07-30T12:03:50;11.70;;;9.47;;
6251;SDS011;3159;52.414;9.784;2023-07-30T12:06:25;14.13;;;9.43;;
6251;SDS011;3159;52.414;9.784;2023-07-30T12:09:09;11.77;;;8.63;;
6251;SDS011;3159;52.414;9.784;2023-07-30T12:11:43;11.90;;;8.40;;
6251;SDS011;3159;52.414;9.784;2023-07-30T12:14:11;11.27;;;8.23;;
6251;SDS011;3159;52.414;9.784;2023-07-30T12:16:38;9.23;;;7.03;;
6251;SDS011;3159;52.414;9.784;2023-07-30T12:19:05;8.40;;;6.53;;
6251;SDS011;3159;52.414;9.784;2023-07-30T12:21:33;9.33;;;7.13;;
6251;SDS011;3159;52.414;9.784;2023-07-30T12:24:01;11.40;;;7.03;;
6251;SDS011;3159;52.414;9.784;2023-07-30T12:26:29;11.87;;;7.27;;
6251;SDS011;3159;52.414;9.784;2023-07-30T12:28:56;10.80;;;6.13;;
6251;SDS011;3159;52.414;9.784;2023-07-30T12:31:23;9.33;;;5.80;;
6251;SDS011;3159;52.414;9.784;2023-07-30T12:33:50;10.87;;;6.17;;
6251;SDS011;3159;52.414;9.784;2023-07-30T12:36:17;9.07;;;6.00;;
6251;SDS011;3159;52.414;9.784;2023-07-30T12:38:45;10.33;;;6.27;;
6251;SDS011;3159;52.414;9.784;2023-07-30T12:41:12;8.47;;;5.57;;
6251;SDS011;3159;52.414;9.784;2023-07-30T12:43:39;12.83;;;5.33;;
6251;SDS011;3159;52.414;9.784;2023-07-30T12:46:06;7.93;;;5.23;;
6251;SDS011;3159;52.414;9.784;2023-07-30T12:48:33;8.07;;;5.30;;
6251;SDS011;3159;52.414;9.784;2023-07-30T12:51:00;9.23;;;5.50;;
6251;SDS011;3159;52.414;9.784;2023-07-30T12:53:27;8.33;;;5.20;;
6251;SDS011;3159;52.414;9.784;2023-07-30T12:55:55;8.60;;;5.37;;
6251;SDS011;3159;52.414;9.784;2023-07-30T12:58:28;7.63;;;4.97;;
6251;SDS011;3159;52.414;9.784;2023-07-30T13:00:55;10.87;;;5.53;;
6251;SDS011;3159;52.414;9.784;2023-07-30T13:03:22;10.33;;;4.87;;
6251;SDS011;3159;52.414;9.784;2023-07-30T13:05:51;8.73;;;4.83;;
6251;SDS011;3159;52.414;9.784;2023-07-30T13:08:19;7.47;;;4.50;;
6251;SDS011;3159;52.414;9.784;2023-07-30T13:10:47;6.37;;;3.90;;
6251;SDS011;3159;52.414;9.784;2023-07-30T13:13:15;6.27;;;3.87;;
6251;SDS011;3159;52.414;9.784;2023-07-30T13:15:42;7.03;;;4.13;;
6251;SDS011;3159;52.414;9.784;2023-07-30T13:18:09;8.60;;;3.80;;
6251;SDS011;3159;52.414;9.784;2023-07-30T13:20:36;6.67;;;3.80;;
6251;SDS011;3159;52.414;9.784;2023-07-30T13:23:03;6.97;;;3.80;;
6251;SDS011;3159;52.414;9.784;2023-07-30T13:25:30;7.17;;;3.57;;
6251;SDS011;3159;52.414;9.784;2023-07-30T13:27:57;6.13;;;3.80;;
6251;SDS011;3159;52.414;9.784;2023-07-30T13:30:25;7.70;;;4.30;;
6251;SDS011;3159;52.414;9.784;2023-07-30T13:32:55;4.83;;;3.50;;
6251;SDS011;3159;52.414;9.784;2023-07-30T13:35:22;6.60;;;4.00;;
6251;SDS011;3159;52.414;9.784;2023-07-30T13:37:49;7.57;;;4.63;;
6251;SDS011;3159;52.414;9.784;2023-07-30T13:40:16;12.00;;;4.43;;
6251;SDS011;3159;52.414;9.784;2023-07-30T13:42:42;5.60;;;3.77;;
6251;SDS011;3159;52.414;9.784;2023-07-30T13:45:09;8.80;;;4.37;;
6251;SDS011;3159;52.414;9.784;2023-07-30T13:47:37;10.20;;;4.43;;
6251;SDS011;3159;52.414;9.784;2023-07-30T13:50:06;7.93;;;3.70;;
6251;SDS011;3159;52.414;9.784;2023-07-30T13:52:33;8.60;;;4.43;;
6251;SDS011;3159;52.414;9.784;2023-07-30T13:55:01;5.80;;;3.67;;
6251;SDS011;3159;52.414;9.784;2023-07-30T13:57:28;6.00;;;3.20;;
6251;SDS011;3159;52.414;9.784;2023-07-30T13:59:54;5.87;;;3.07;;
6251;SDS011;3159;52.414;9.784;2023-07-30T14:02:21;5.90;;;3.30;;
6251;SDS011;3159;52.414;9.784;2023-07-30T14:04:50;6.97;;;3.50;;
6251;SDS011;3159;52.414;9.784;2023-07-30T14:07:16;6.87;;;3.07;;
6251;SDS011;3159;52.414;9.784;2023-07-30T14:09:43;7.67;;;3.20;;
6251;SDS011;3159;52.414;9.784;2023-07-30T14:12:10;7.10;;;3.03;;
6251;SDS011;3159;52.414;9.784;2023-07-30T14:14:37;6.03;;;2.57;;
6251;SDS011;3159;52.414;9.784;2023-07-30T14:17:04;5.27;;;2.57;;
6251;SDS011;3159;52.414;9.784;2023-07-30T14:19:32;9.37;;;3.23;;
6251;SDS011;3159;52.414;9.784;2023-07-30T14:22:00;5.30;;;2.70;;
6251;SDS011;3159;52.414;9.784;2023-07-30T14:24:27;5.13;;;2.50;;
6251;SDS011;3159;52.414;9.784;2023-07-30T14:26:54;4.57;;;2.60;;
6251;SDS011;3159;52.414;9.784;2023-07-30T14:29:21;6.13;;;2.17;;
6251;SDS011;3159;52.414;9.784;2023-07-30T14:31:48;7.30;;;2.30;;
6251;SDS011;3159;52.414;9.784;2023-07-30T14:34:16;7.67;;;2.03;;
6251;SDS011;3159;52.414;9.784;2023-07-30T14:36:42;5.70;;;2.00;;
6251;SDS011;3159;52.414;9.784;2023-07-30T14:39:11;5.00;;;1.63;;
6251;SDS011;3159;52.414;9.784;2023-07-30T14:41:38;3.80;;;1.50;;
6251;SDS011;3159;52.414;9.784;2023-07-30T14:44:05;4.00;;;1.40;;
6251;SDS011;3159;52.414;9.784;2023-07-30T14:46:32;7.47;;;1.63;;
6251;SDS011;3159;52.414;9.784;2023-07-30T14:48:59;3.03;;;1.67;;
6251;SDS011;3159;52.414;9.784;2023-07-30T14:51:27;3.87;;;1.50;;
6251;SDS011;3159;52.414;9.784;2023-07-30T14:53:54;3.80;;;1.30;;
6251;SDS011;3159;52.414;9.784;2023-07-30T14:56:22;7.20;;;1.90;;
6251;SDS011;3159;52.414;9.784;2023-07-30T14:58:51;4.77;;;1.60;;
6251;SDS011;3159;52.414;9.784;2023-07-30T15:01:18;4.00;;;1.60;;
6251;SDS011;3159;52.414;9.784;2023-07-30T15:03:45;4.77;;;1.73;;
6251;SDS011;3159;52.414;9.784;2023-07-30T15:06:12;2.47;;;1.30;;
6251;SDS011;3159;52.414;9.784;2023-07-30T15:08:39;2.93;;;1.67;;
6251;SDS011;3159;52.414;9.784;2023-07-30T15:11:06;3.37;;;1.87;;
6251;SDS011;3159;52.414;9.784;2023-07-30T15:13:34;8.73;;;2.07;;
6251;SDS011;3159;52.414;9.784;2023-07-30T15:16:01;3.03;;;1.50;;